createdAt,value
2019-06-26T04:59:48.257Z,13.77
2019-06-26T05:04:50.978Z,12.98
2019-06-26T05:09:52.112Z,13.11
2019-06-26T05:20:09.564Z,13.45
2019-06-26T05:25:15.646Z,12.85
2019-06-26T05:40:49.766Z,12.26
2019-06-26T06:01:13.574Z,13.44
2019-06-26T06:06:01.655Z,13.98
2019-06-26T06:11:06.216Z,12.39
2019-06-26T06:26:07.190Z,12.51
2019-06-26T06:31:24.676Z,12.69
2019-06-26T06:36:32.470Z,12.39
2019-06-26T06:41:38.938Z,12.07
2019-06-26T07:06:52.778Z,11.30
2019-06-26T07:11:52.946Z,11.48
2019-06-26T07:17:20.098Z,11.25
2019-06-26T07:22:11.627Z,10.98
2019-06-26T07:26:59.365Z,10.69
2019-06-26T07:32:14.173Z,11.07
2019-06-26T07:37:19.965Z,11.43
2019-06-26T07:42:22.286Z,11.14
2019-06-26T07:47:32.587Z,10.85
2019-06-26T07:52:37.733Z,12.09
2019-06-26T07:57:28.886Z,10.38
2019-06-26T08:07:43.378Z,10.31
2019-06-26T08:17:59.259Z,10.45
2019-06-26T08:23:02.879Z,10.29
2019-06-26T08:28:02.901Z,10.15
2019-06-26T08:32:59.843Z,10.00
2019-06-26T08:38:15.448Z,9.06
2019-06-26T08:43:32.372Z,10.56
2019-06-26T08:48:42.533Z,9.40
2019-06-26T08:53:30.994Z,8.80
2019-06-26T08:58:47.482Z,8.85
2019-06-26T09:03:44.415Z,9.06
2019-06-26T09:08:46.006Z,8.96
2019-06-26T09:14:00.369Z,8.83
2019-06-26T09:18:51.842Z,8.96
2019-06-26T09:24:05.447Z,9.11
2019-06-26T09:29:14.466Z,10.11
2019-06-26T09:34:05.847Z,9.17
2019-06-26T09:44:13.493Z,9.00
2019-06-26T09:49:23.608Z,8.90
2019-06-26T09:54:42.997Z,8.57
2019-06-26T09:59:38.357Z,9.15
2019-06-26T10:04:51.652Z,8.65
2019-06-26T10:09:50.043Z,8.24
2019-06-26T10:15:02.735Z,8.69
2019-06-26T10:19:56.435Z,8.35
2019-06-26T10:25:17.994Z,7.80
2019-06-26T10:30:24.133Z,7.59
2019-06-26T10:35:13.294Z,7.69
2019-06-26T10:40:45.796Z,8.55
2019-06-26T10:45:27.430Z,7.59
2019-06-26T10:50:58.433Z,7.95
2019-06-26T11:01:09.723Z,8.53
2019-06-26T11:05:57.931Z,8.16
2019-06-26T11:11:07.690Z,7.80
2019-06-26T11:16:33.432Z,7.35
2019-06-26T11:21:20.835Z,7.69
2019-06-26T11:26:36.242Z,8.22
2019-06-26T11:36:38.273Z,7.70
2019-06-26T11:41:39.516Z,7.39
2019-06-26T11:51:49.884Z,7.81
2019-06-26T11:56:59.677Z,7.85
2019-06-26T12:01:52.919Z,8.26
2019-06-26T12:07:25.404Z,8.68
2019-06-26T12:12:11.279Z,7.74
2019-06-26T12:17:11.028Z,7.55
2019-06-26T12:22:16.113Z,7.27
2019-06-26T12:27:21.510Z,7.55
2019-06-26T12:32:24.617Z,7.49
2019-06-26T12:37:37.806Z,8.34
2019-06-26T12:42:26.599Z,7.28
2019-06-26T12:52:40.689Z,8.22
2019-06-26T12:57:45.627Z,7.66
2019-06-26T13:02:57.912Z,8.02
2019-06-26T13:07:51.448Z,7.57
2019-06-26T13:12:55.487Z,7.89
2019-06-26T13:18:07.928Z,8.52
2019-06-26T13:23:00.878Z,7.84
2019-06-26T13:33:27.987Z,8.10
2019-06-26T13:38:31.686Z,8.09
2019-06-26T13:43:24.091Z,9.90
2019-06-26T13:48:40.488Z,8.18
2019-06-26T13:53:49.573Z,8.05
2019-06-26T13:58:55.315Z,7.65
2019-06-26T14:04:08.202Z,8.28
2019-06-26T14:09:04.683Z,8.28
2019-06-26T14:14:37.746Z,8.19
2019-06-26T14:19:30.778Z,7.84
2019-06-26T14:24:22.699Z,7.84
2019-06-26T14:29:24.994Z,8.19
2019-06-26T14:34:44.380Z,8.07
2019-06-26T14:39:48.028Z,9.52
2019-06-26T14:44:48.187Z,10.38
2019-06-26T14:49:52.229Z,10.12
2019-06-26T14:54:57.231Z,9.79
2019-06-26T15:00:00.573Z,9.26
2019-06-26T15:04:58.968Z,9.43
2019-06-26T15:25:25.566Z,8.82
2019-06-26T15:35:42.469Z,8.09
2019-06-26T15:40:25.518Z,11.99
2019-06-26T15:45:46.967Z,11.55
2019-06-26T15:55:55.488Z,8.46
2019-06-26T16:01:00.570Z,10.38
2019-06-26T16:06:02.354Z,10.55
2019-06-26T16:21:25.492Z,10.77
2019-06-26T16:26:18.682Z,10.71
2019-06-26T16:31:19.080Z,10.56
2019-06-26T16:36:40.145Z,11.12
2019-06-26T16:41:57.247Z,10.73
2019-06-26T16:47:04.912Z,10.35
2019-06-26T16:51:47.750Z,10.76
2019-06-26T17:01:57.449Z,10.24
2019-06-26T17:07:14.471Z,11.02
2019-06-26T17:12:08.098Z,11.22
2019-06-26T17:17:26.444Z,11.21
2019-06-26T17:22:32.208Z,10.92
2019-06-26T17:27:10.792Z,11.39
2019-06-26T17:32:30.738Z,10.74
2019-06-26T17:37:36.648Z,11.01
2019-06-26T17:42:40.058Z,12.12
2019-06-26T17:52:52.414Z,11.25
2019-06-26T17:57:47.680Z,11.21
2019-06-26T18:03:03.144Z,11.12
2019-06-26T18:08:21.754Z,12.75
2019-06-26T18:13:08.111Z,10.99
2019-06-26T18:18:20.094Z,10.86
2019-06-26T18:23:09.298Z,10.45
2019-06-26T18:28:24.514Z,11.73
2019-06-26T18:33:28.928Z,11.81
2019-06-26T18:38:13.550Z,11.14
2019-06-26T18:43:29.768Z,10.43
2019-06-26T18:49:00.756Z,10.27
2019-06-26T18:53:57.019Z,11.22
2019-06-26T18:58:43.666Z,10.52
2019-06-26T19:03:55.273Z,12.43
2019-06-26T19:08:54.979Z,12.79
2019-06-26T19:13:52.139Z,12.30
2019-06-26T19:19:11.334Z,11.75
2019-06-26T19:24:09.625Z,12.69
2019-06-26T19:29:17.915Z,11.87
2019-06-26T19:34:22.733Z,12.99
2019-06-26T19:39:21.514Z,11.38
2019-06-26T19:44:28.002Z,11.78
2019-06-26T19:49:30.215Z,11.51
2019-06-26T19:54:50.778Z,11.99
2019-06-26T19:59:49.712Z,12.46
2019-06-26T20:05:06.725Z,13.12
2019-06-26T20:10:20.659Z,11.81
2019-06-26T20:15:26.928Z,11.94
2019-06-26T20:20:29.962Z,11.66
2019-06-26T20:25:16.011Z,12.79
2019-06-26T20:56:05.748Z,11.46
2019-06-26T21:06:25.971Z,12.10
2019-06-26T21:11:21.581Z,10.68
2019-06-26T21:21:06.916Z,9.91
2019-06-26T21:26:22.590Z,10.58
2019-06-26T21:41:50.789Z,9.59
2019-06-26T21:51:45.075Z,9.46
2019-06-26T22:06:54.824Z,8.56
2019-06-26T22:17:06.526Z,9.05
2019-06-26T22:22:06.065Z,9.23
2019-06-26T22:32:00.402Z,9.46
2019-06-26T22:37:17.507Z,8.72
2019-06-26T22:42:35.910Z,8.58
2019-06-26T22:47:28.915Z,9.17
2019-06-26T22:52:40.695Z,9.35
2019-06-26T22:57:41.863Z,8.71
2019-06-26T23:02:44.996Z,9.84
2019-06-26T23:07:36.700Z,8.78
2019-06-26T23:17:41.689Z,8.96
2019-06-26T23:22:53.685Z,8.80
2019-06-26T23:27:54.218Z,9.56
2019-06-26T23:32:53.427Z,9.31
2019-06-26T23:37:52.088Z,9.05
2019-06-26T23:48:09.245Z,8.32
2019-06-26T23:53:26.234Z,8.66
2019-06-26T23:58:24.445Z,8.57
